createdAt,value
2018-03-08T00:00:52.937Z,6.20
2018-03-08T00:03:20.533Z,6.20
2018-03-08T00:05:48.916Z,6.00
2018-03-08T00:08:16.490Z,6.00
2018-03-08T00:10:44.058Z,6.00
2018-03-08T00:13:11.670Z,6.00
2018-03-08T00:15:39.999Z,6.10
2018-03-08T00:18:07.567Z,6.10
2018-03-08T00:20:35.171Z,6.10
2018-03-08T00:23:03.507Z,6.10
2018-03-08T00:25:31.068Z,6.20
2018-03-08T00:27:58.688Z,6.10
2018-03-08T00:30:26.268Z,6.20
2018-03-08T00:32:54.294Z,6.20
2018-03-08T00:35:21.926Z,6.30
2018-03-08T00:37:49.500Z,6.30
2018-03-08T00:40:17.085Z,6.40
2018-03-08T00:42:45.464Z,6.40
2018-03-08T00:45:13.799Z,6.40
2018-03-08T00:47:41.368Z,6.30
2018-03-08T00:50:08.991Z,6.40
2018-03-08T00:52:36.575Z,6.40
2018-03-08T00:55:04.149Z,6.40
2018-03-08T00:57:31.786Z,6.40
2018-03-08T00:59:59.371Z,6.40
2018-03-08T01:02:26.962Z,6.30
2018-03-08T01:04:55.345Z,6.40
2018-03-08T01:07:23.677Z,6.50
2018-03-08T01:09:51.238Z,6.50
2018-03-08T01:12:18.881Z,6.50
2018-03-08T01:14:46.457Z,6.40
2018-03-08T01:17:14.037Z,6.30
2018-03-08T01:19:41.646Z,6.30
2018-03-08T01:22:09.211Z,6.20
2018-03-08T01:24:36.902Z,6.20
2018-03-08T01:27:04.553Z,6.10
2018-03-08T01:29:32.952Z,6.10
2018-03-08T01:32:00.520Z,6.00
2018-03-08T01:34:28.120Z,6.00
2018-03-08T01:36:56.439Z,6.00
2018-03-08T01:39:24.004Z,6.00
2018-03-08T01:41:51.615Z,6.00
2018-03-08T01:44:19.169Z,5.90
2018-03-08T01:46:47.513Z,5.90
2018-03-08T01:49:15.115Z,5.90
2018-03-08T01:51:54.669Z,5.80
2018-03-08T01:54:22.317Z,5.70
2018-03-08T01:56:49.950Z,5.50
2018-03-08T01:59:17.492Z,5.40
2018-03-08T02:01:45.117Z,5.40
2018-03-08T02:04:12.682Z,5.40
2018-03-08T02:06:40.265Z,5.40
2018-03-08T02:09:07.874Z,5.40
2018-03-08T02:11:35.450Z,5.40
2018-03-08T02:14:03.039Z,5.50
2018-03-08T02:16:30.658Z,5.60
2018-03-08T02:18:58.254Z,5.70
2018-03-08T02:21:25.820Z,5.70
2018-03-08T02:23:53.407Z,5.80
2018-03-08T02:26:20.958Z,5.80
2018-03-08T02:28:48.526Z,5.80
2018-03-08T02:31:16.154Z,5.80
2018-03-08T02:33:43.744Z,5.80
2018-03-08T02:36:11.328Z,5.70
2018-03-08T02:38:39.726Z,5.60
2018-03-08T02:41:07.307Z,5.60
2018-03-08T02:43:34.879Z,5.60
2018-03-08T02:46:02.482Z,5.60
2018-03-08T02:48:30.820Z,5.50
2018-03-08T02:50:58.382Z,5.40
2018-03-08T02:53:26.000Z,5.40
2018-03-08T02:55:53.567Z,5.40
2018-03-08T02:58:21.127Z,5.30
2018-03-08T03:00:48.729Z,5.40
2018-03-08T03:03:16.312Z,5.40
2018-03-08T03:05:43.893Z,5.40
2018-03-08T03:08:11.525Z,5.40
2018-03-08T03:10:39.108Z,5.40
2018-03-08T03:13:07.434Z,5.30
2018-03-08T03:15:35.063Z,5.30
2018-03-08T03:18:02.628Z,5.30
2018-03-08T03:20:30.208Z,5.40
2018-03-08T03:22:57.811Z,5.30
2018-03-08T03:25:25.388Z,5.30
2018-03-08T03:27:53.761Z,5.40
2018-03-08T03:30:22.088Z,5.50
2018-03-08T03:32:49.658Z,5.50
2018-03-08T03:35:17.280Z,5.50
2018-03-08T03:37:44.843Z,5.50
2018-03-08T03:40:12.423Z,5.60
2018-03-08T03:42:40.086Z,5.60
2018-03-08T03:45:07.666Z,5.60
2018-03-08T03:47:35.237Z,5.50
2018-03-08T03:50:02.866Z,5.50
2018-03-08T03:52:30.434Z,5.60
2018-03-08T03:54:58.003Z,5.60
2018-03-08T03:57:25.606Z,5.60
2018-03-08T03:59:53.949Z,5.70
2018-03-08T04:02:21.577Z,5.70
2018-03-08T04:04:49.143Z,5.70
2018-03-08T04:07:16.706Z,5.60
2018-03-08T04:09:44.316Z,5.50
2018-03-08T04:12:12.691Z,5.20
2018-03-08T04:14:40.243Z,5.20
2018-03-08T04:17:07.878Z,5.00
2018-03-08T04:19:35.451Z,5.00
2018-03-08T04:22:03.019Z,4.80
2018-03-08T04:24:30.623Z,4.70
2018-03-08T04:26:58.205Z,4.60
2018-03-08T04:29:25.790Z,4.60
2018-03-08T04:31:53.419Z,4.70
2018-03-08T04:34:20.992Z,4.70
2018-03-08T04:36:48.577Z,4.70
2018-03-08T04:39:16.955Z,4.70
2018-03-08T04:41:44.539Z,4.70
2018-03-08T04:44:12.887Z,4.70
2018-03-08T04:46:40.479Z,4.70
2018-03-08T04:49:08.795Z,4.60
2018-03-08T04:51:36.379Z,4.60
2018-03-08T04:54:04.768Z,4.40
2018-03-08T04:56:32.374Z,4.40
2018-03-08T04:58:59.953Z,4.30
2018-03-08T05:01:27.530Z,4.10
2018-03-08T05:03:55.238Z,4.00
2018-03-08T05:06:22.879Z,3.80
2018-03-08T05:08:51.243Z,3.50
2018-03-08T05:11:18.811Z,3.50
2018-03-08T05:13:46.396Z,3.20
2018-03-08T05:16:14.764Z,3.00
2018-03-08T05:18:42.352Z,3.00
2018-03-08T05:21:09.931Z,2.90
2018-03-08T05:23:37.491Z,2.90
2018-03-08T05:26:05.081Z,2.80
2018-03-08T05:28:32.673Z,2.80
2018-03-08T05:31:00.984Z,2.70
2018-03-08T05:33:28.569Z,2.70
2018-03-08T05:35:56.167Z,2.70
2018-03-08T05:38:24.519Z,2.60
2018-03-08T05:40:52.103Z,2.60
2018-03-08T05:43:20.434Z,2.60
2018-03-08T05:45:48.021Z,2.60
2018-03-08T05:48:15.610Z,2.60
2018-03-08T05:50:43.916Z,2.50
2018-03-08T05:53:11.490Z,2.40
2018-03-08T05:55:39.080Z,2.50
2018-03-08T05:58:06.671Z,2.40
2018-03-08T06:00:35.017Z,2.50
2018-03-08T06:03:02.583Z,2.50
2018-03-08T06:05:30.171Z,2.60
2018-03-08T06:07:58.527Z,2.70
2018-03-08T06:10:26.101Z,2.70
2018-03-08T06:12:54.473Z,2.60
2018-03-08T06:15:22.805Z,2.60
2018-03-08T06:17:50.404Z,2.60
2018-03-08T06:20:17.977Z,2.70
2018-03-08T06:22:46.328Z,2.70
2018-03-08T06:25:13.896Z,2.70
2018-03-08T06:27:41.500Z,2.80
2018-03-08T06:30:09.082Z,2.90
2018-03-08T06:32:36.689Z,3.20
2018-03-08T06:35:05.027Z,3.60
2018-03-08T06:37:32.613Z,3.60
2018-03-08T06:40:00.170Z,3.80
2018-03-08T06:42:27.775Z,4.00
2018-03-08T06:44:55.334Z,4.20
2018-03-08T06:47:22.904Z,4.40
2018-03-08T06:49:51.509Z,4.50
2018-03-08T06:52:19.062Z,4.70
2018-03-08T06:54:46.675Z,4.80
2018-03-08T06:57:14.287Z,5.00
2018-03-08T06:59:42.625Z,5.30
2018-03-08T07:02:10.221Z,5.30
2018-03-08T07:04:38.828Z,5.50
2018-03-08T07:07:06.416Z,5.60
2018-03-08T07:09:34.780Z,5.90
2018-03-08T07:12:02.366Z,5.90
2018-03-08T07:14:29.930Z,6.00
2018-03-08T07:16:58.272Z,6.20
2018-03-08T07:19:25.834Z,6.10
2018-03-08T07:21:53.427Z,6.30
2018-03-08T07:24:20.997Z,6.40
2018-03-08T07:26:48.554Z,6.70
2018-03-08T07:29:16.136Z,6.90
2018-03-08T07:31:43.720Z,7.10
2018-03-08T07:34:11.298Z,7.20
2018-03-08T07:36:38.896Z,7.30
2018-03-08T07:39:06.486Z,7.50
2018-03-08T07:41:34.055Z,7.60
2018-03-08T07:44:01.622Z,7.40
2018-03-08T07:46:29.224Z,7.40
2018-03-08T07:48:57.556Z,7.30
2018-03-08T07:51:25.237Z,7.30
2018-03-08T07:53:53.614Z,7.10
2018-03-08T07:56:21.162Z,7.20
2018-03-08T07:58:48.759Z,7.30
2018-03-08T08:01:17.102Z,7.80
2018-03-08T08:03:45.561Z,7.80
2018-03-08T08:06:25.102Z,8.10
2018-03-08T08:09:06.419Z,8.20
2018-03-08T08:11:33.983Z,8.40
2018-03-08T08:14:01.571Z,8.60
2018-03-08T08:16:29.156Z,8.70
2018-03-08T08:18:56.720Z,8.70
2018-03-08T08:21:24.420Z,9.00
2018-03-08T08:23:51.992Z,9.10
2018-03-08T08:26:19.583Z,9.20
2018-03-08T08:28:47.141Z,9.40
2018-03-08T08:31:14.737Z,9.40
2018-03-08T08:33:42.311Z,9.40
2018-03-08T08:36:09.886Z,9.60
2018-03-08T08:38:37.491Z,9.80
2018-03-08T08:41:05.063Z,9.90
2018-03-08T08:43:32.643Z,9.80
2018-03-08T08:46:00.240Z,9.70
2018-03-08T08:48:28.586Z,9.70
2018-03-08T08:50:56.185Z,9.70
2018-03-08T08:53:24.528Z,9.70
2018-03-08T08:55:52.101Z,9.70
2018-03-08T08:58:19.693Z,9.60
2018-03-08T09:00:51.889Z,9.60
2018-03-08T09:03:19.458Z,9.60
2018-03-08T09:05:47.079Z,9.60
2018-03-08T09:08:14.642Z,9.70
2018-03-08T09:10:42.221Z,9.80
2018-03-08T09:13:09.814Z,10.00
2018-03-08T09:15:37.393Z,10.10
2018-03-08T09:18:04.974Z,10.10
2018-03-08T09:20:33.360Z,10.20
2018-03-08T09:23:01.019Z,10.20
2018-03-08T09:25:28.582Z,10.30
2018-03-08T09:27:56.167Z,10.50
2018-03-08T09:30:23.767Z,10.50
2018-03-08T09:32:51.349Z,10.60
2018-03-08T09:35:19.715Z,10.80
2018-03-08T09:37:48.043Z,10.70
2018-03-08T09:40:15.627Z,10.70
2018-03-08T09:42:43.229Z,10.50
2018-03-08T09:45:11.564Z,10.50
2018-03-08T09:47:41.159Z,10.50
2018-03-08T09:50:08.725Z,10.60
2018-03-08T09:52:36.314Z,10.70
2018-03-08T09:55:03.890Z,10.90
2018-03-08T09:57:32.245Z,11.20
2018-03-08T09:59:59.823Z,11.20
2018-03-08T10:02:28.187Z,11.30
2018-03-08T10:04:55.783Z,11.20
2018-03-08T10:07:23.381Z,11.30
2018-03-08T10:09:50.955Z,11.50
2018-03-08T10:12:18.549Z,11.50
2018-03-08T10:14:46.116Z,11.50
2018-03-08T10:17:13.709Z,11.50
2018-03-08T10:19:41.325Z,11.50
2018-03-08T10:22:09.667Z,11.20
2018-03-08T10:24:41.123Z,11.20
2018-03-08T10:27:08.688Z,11.20
2018-03-08T10:29:36.280Z,11.30
2018-03-08T10:32:04.684Z,11.40
2018-03-08T10:34:32.309Z,11.40
2018-03-08T10:37:00.655Z,11.90
2018-03-08T10:39:28.237Z,11.90
2018-03-08T10:41:56.610Z,12.40
2018-03-08T10:44:24.225Z,12.30
2018-03-08T10:46:51.792Z,12.40
2018-03-08T10:49:21.292Z,12.70
2018-03-08T10:51:48.882Z,13.00
2018-03-08T10:54:16.466Z,13.30
2018-03-08T10:56:44.839Z,13.40
2018-03-08T10:59:12.951Z,13.40
2018-03-08T11:01:43.933Z,13.60
2018-03-08T11:04:30.613Z,13.70
2018-03-08T11:06:58.199Z,13.20
2018-03-08T11:09:25.775Z,13.10
2018-03-08T11:11:53.372Z,13.00
2018-03-08T11:14:20.942Z,12.80
2018-03-08T11:16:48.523Z,12.80
2018-03-08T11:19:16.138Z,12.90
2018-03-08T11:21:44.476Z,13.30
2018-03-08T11:24:12.037Z,13.30
2018-03-08T11:26:39.645Z,13.10
2018-03-08T11:29:07.246Z,12.80
2018-03-08T11:31:34.832Z,13.00
2018-03-08T11:34:02.407Z,12.90
2018-03-08T11:36:30.763Z,12.50
2018-03-08T11:38:58.338Z,12.50
2018-03-08T11:41:26.702Z,12.70
2018-03-08T11:43:54.308Z,12.80
2018-03-08T11:46:21.882Z,12.70
2018-03-08T11:48:49.441Z,12.60
2018-03-08T11:51:17.525Z,12.60
2018-03-08T11:53:45.392Z,12.80
2018-03-08T11:56:12.992Z,12.80
2018-03-08T11:58:40.560Z,13.00
2018-03-08T12:01:09.824Z,13.50
2018-03-08T12:03:37.388Z,13.50
2018-03-08T12:06:04.967Z,13.50
2018-03-08T12:08:32.530Z,13.70
2018-03-08T12:11:00.122Z,13.90
2018-03-08T12:13:27.739Z,14.00
2018-03-08T12:15:55.338Z,13.90
2018-03-08T12:18:22.937Z,13.90
2018-03-08T12:20:50.491Z,14.00
2018-03-08T12:23:18.057Z,13.90
2018-03-08T12:25:45.646Z,13.90
2018-03-08T12:28:13.210Z,13.90
2018-03-08T12:30:40.800Z,13.80
2018-03-08T12:33:08.372Z,13.80
2018-03-08T12:35:35.967Z,14.00
2018-03-08T12:38:03.547Z,14.20
2018-03-08T12:40:31.122Z,14.20
2018-03-08T12:42:59.483Z,14.30
2018-03-08T12:45:27.075Z,14.40
2018-03-08T12:47:54.664Z,14.50
2018-03-08T12:50:22.224Z,14.60
2018-03-08T12:52:49.825Z,14.70
2018-03-08T12:55:29.397Z,14.70
2018-03-08T12:57:57.014Z,14.70
2018-03-08T13:00:24.594Z,14.60
2018-03-08T13:02:52.173Z,14.20
2018-03-08T13:05:20.531Z,13.70
2018-03-08T13:07:48.116Z,13.70
2018-03-08T13:10:15.711Z,13.80
2018-03-08T13:12:43.292Z,13.90
2018-03-08T13:15:10.893Z,14.00
2018-03-08T13:17:38.501Z,14.30
2018-03-08T13:20:06.072Z,14.60
2018-03-08T13:22:33.668Z,14.70
2018-03-08T13:25:01.991Z,14.80
2018-03-08T13:27:29.578Z,14.80
2018-03-08T13:29:57.153Z,14.70
2018-03-08T13:32:24.741Z,14.50
2018-03-08T13:34:52.303Z,14.50
2018-03-08T13:37:19.918Z,14.40
2018-03-08T13:39:50.616Z,14.40
2018-03-08T13:42:18.182Z,14.60
2018-03-08T13:44:45.779Z,14.90
2018-03-08T13:47:13.353Z,15.30
2018-03-08T13:49:41.706Z,15.40
2018-03-08T13:52:09.303Z,15.40
2018-03-08T13:54:37.655Z,15.40
2018-03-08T13:57:05.217Z,15.30
2018-03-08T13:59:32.800Z,15.00
2018-03-08T14:02:01.190Z,14.80
2018-03-08T14:04:28.789Z,14.80
2018-03-08T14:06:56.360Z,14.80
2018-03-08T14:09:23.973Z,14.90
2018-03-08T14:11:52.289Z,15.20
2018-03-08T14:14:19.865Z,15.00
2018-03-08T14:16:47.459Z,15.00
2018-03-08T14:19:15.803Z,15.10
2018-03-08T14:21:43.415Z,15.00
2018-03-08T14:24:10.997Z,14.80
2018-03-08T14:26:38.562Z,14.60
2018-03-08T14:29:06.145Z,14.50
2018-03-08T14:31:34.689Z,14.50
2018-03-08T14:34:02.278Z,14.40
2018-03-08T14:36:29.873Z,14.50
2018-03-08T14:38:57.463Z,14.40
2018-03-08T14:41:25.050Z,14.50
2018-03-08T14:43:52.657Z,14.50
2018-03-08T14:46:21.017Z,14.30
2018-03-08T14:48:49.575Z,14.30
2018-03-08T14:51:17.157Z,14.30
2018-03-08T14:53:44.752Z,14.40
2018-03-08T14:56:12.333Z,14.40
2018-03-08T14:58:39.896Z,14.40
2018-03-08T15:01:07.490Z,14.40
2018-03-08T15:03:35.077Z,14.40
2018-03-08T15:06:02.664Z,14.30
2018-03-08T15:08:30.243Z,14.20
2018-03-08T15:10:57.819Z,14.00
2018-03-08T15:13:25.378Z,13.80
2018-03-08T15:15:52.955Z,13.80
2018-03-08T15:18:20.535Z,13.70
2018-03-08T15:20:48.871Z,13.70
2018-03-08T15:23:16.493Z,13.70
2018-03-08T15:25:44.097Z,13.70
2018-03-08T15:28:11.681Z,13.70
2018-03-08T15:30:40.049Z,13.40
2018-03-08T15:33:07.605Z,13.40
2018-03-08T15:35:35.192Z,13.40
2018-03-08T15:38:03.517Z,13.30
2018-03-08T15:40:31.100Z,13.30
2018-03-08T15:43:00.279Z,13.30
2018-03-08T15:45:29.962Z,13.30
2018-03-08T15:47:57.691Z,13.30
2018-03-08T15:50:33.934Z,13.30
2018-03-08T15:53:03.533Z,13.30
2018-03-08T15:55:31.115Z,13.40
2018-03-08T15:57:59.489Z,13.30
2018-03-08T16:00:27.060Z,13.30
2018-03-08T16:02:55.424Z,13.30
2018-03-08T16:05:23.013Z,13.30
2018-03-08T16:08:02.389Z,13.40
2018-03-08T16:10:35.648Z,13.40
2018-03-08T16:13:10.299Z,13.40
2018-03-08T16:15:37.873Z,13.50
2018-03-08T16:18:05.450Z,13.40
2018-03-08T16:20:43.503Z,13.30
2018-03-08T16:23:11.071Z,13.20
2018-03-08T16:25:38.648Z,13.20
2018-03-08T16:28:06.218Z,13.10
2018-03-08T16:30:37.367Z,12.90
2018-03-08T16:33:08.228Z,12.90
2018-03-08T16:35:39.842Z,12.70
2018-03-08T16:38:07.442Z,12.70
2018-03-08T16:40:35.064Z,12.50
2018-03-08T16:43:02.631Z,12.50
2018-03-08T16:45:30.241Z,12.50
2018-03-08T16:47:58.569Z,12.40
2018-03-08T16:50:31.270Z,12.40
2018-03-08T16:52:59.819Z,12.40
2018-03-08T16:55:27.395Z,12.30
2018-03-08T16:57:54.954Z,12.30
2018-03-08T17:00:22.563Z,12.30
2018-03-08T17:02:50.904Z,12.30
2018-03-08T17:05:18.509Z,12.20
2018-03-08T17:07:46.899Z,12.30
2018-03-08T17:10:15.208Z,12.20
2018-03-08T17:12:42.815Z,12.10
2018-03-08T17:15:12.165Z,12.10
2018-03-08T17:17:39.741Z,12.10
2018-03-08T17:20:09.158Z,12.10
2018-03-08T17:22:36.735Z,12.10
2018-03-08T17:25:04.366Z,12.00
2018-03-08T17:27:31.947Z,12.00
2018-03-08T17:29:59.537Z,11.90
2018-03-08T17:32:27.141Z,11.80
2018-03-08T17:34:55.732Z,11.60
2018-03-08T17:37:23.326Z,11.50
2018-03-08T17:39:55.187Z,11.30
2018-03-08T17:42:22.805Z,11.30
2018-03-08T17:44:50.391Z,11.20
2018-03-08T17:47:17.991Z,11.20
2018-03-08T17:49:45.593Z,11.20
2018-03-08T17:52:13.177Z,11.10
2018-03-08T17:54:40.765Z,11.00
2018-03-08T17:57:08.382Z,10.90
2018-03-08T17:59:35.947Z,10.80
2018-03-08T18:02:03.508Z,10.80
2018-03-08T18:04:31.095Z,10.80
2018-03-08T18:06:59.424Z,10.60
2018-03-08T18:09:27.077Z,10.60
2018-03-08T18:11:55.451Z,10.60
2018-03-08T18:14:23.049Z,10.50
2018-03-08T18:16:50.624Z,10.40
2018-03-08T18:19:18.975Z,10.20
2018-03-08T18:21:48.072Z,10.00
2018-03-08T18:24:15.680Z,10.00
2018-03-08T18:26:45.212Z,10.00
2018-03-08T18:29:12.787Z,9.80
2018-03-08T18:31:40.371Z,9.70
2018-03-08T18:34:07.937Z,9.70
2018-03-08T18:36:36.287Z,9.60
2018-03-08T18:39:03.860Z,9.60
2018-03-08T18:41:32.313Z,9.50
2018-03-08T18:43:59.866Z,9.40
2018-03-08T18:46:27.456Z,9.30
2018-03-08T18:48:55.036Z,9.20
2018-03-08T18:51:23.376Z,9.00
2018-03-08T18:53:50.972Z,9.00
2018-03-08T18:56:19.325Z,8.90
2018-03-08T18:58:46.892Z,8.90
2018-03-08T19:01:14.508Z,8.80
2018-03-08T19:03:42.107Z,8.60
2018-03-08T19:06:09.716Z,8.50
2018-03-08T19:08:37.312Z,8.50
2018-03-08T19:11:05.707Z,8.30
2018-03-08T19:13:33.316Z,8.20
2018-03-08T19:16:00.926Z,8.10
2018-03-08T19:18:28.507Z,7.90
2018-03-08T19:20:56.075Z,7.70
2018-03-08T19:23:23.678Z,7.60
2018-03-08T19:25:51.263Z,7.60
2018-03-08T19:28:18.853Z,7.60
2018-03-08T19:30:47.803Z,7.60
2018-03-08T19:33:15.408Z,7.50
2018-03-08T19:35:43.757Z,7.50
2018-03-08T19:38:11.362Z,7.50
2018-03-08T19:40:39.694Z,7.30
2018-03-08T19:43:08.279Z,7.30
2018-03-08T19:45:35.842Z,7.20
2018-03-08T19:48:03.463Z,7.20
2018-03-08T19:50:31.028Z,7.20
2018-03-08T19:52:58.595Z,7.10
2018-03-08T19:55:26.212Z,7.00
2018-03-08T19:57:54.587Z,6.90
2018-03-08T20:00:22.938Z,6.90
2018-03-08T20:02:51.288Z,6.90
2018-03-08T20:05:18.850Z,6.90
2018-03-08T20:07:46.452Z,6.90
2018-03-08T20:10:14.038Z,6.90
2018-03-08T20:12:41.627Z,6.80
2018-03-08T20:15:09.201Z,6.70
2018-03-08T20:17:36.773Z,6.60
2018-03-08T20:20:04.388Z,6.60
2018-03-08T20:22:31.966Z,6.70
2018-03-08T20:24:59.555Z,6.70
2018-03-08T20:27:27.193Z,6.70
2018-03-08T20:29:54.828Z,6.70
2018-03-08T20:32:22.390Z,6.70
2018-03-08T20:34:49.990Z,6.70
2018-03-08T20:37:17.537Z,6.70
2018-03-08T20:39:45.155Z,6.70
2018-03-08T20:42:13.486Z,6.80
2018-03-08T20:44:41.053Z,6.80
2018-03-08T20:47:08.701Z,6.80
2018-03-08T20:49:36.267Z,6.90
2018-03-08T20:52:04.824Z,7.00
2018-03-08T20:54:32.414Z,7.00
2018-03-08T20:57:00.016Z,7.10
2018-03-08T20:59:28.353Z,7.10
2018-03-08T21:01:57.471Z,7.10
2018-03-08T21:04:25.037Z,7.00
2018-03-08T21:06:53.386Z,7.20
2018-03-08T21:09:20.951Z,7.10
2018-03-08T21:11:48.524Z,7.10
2018-03-08T21:14:16.149Z,7.10
2018-03-08T21:16:43.719Z,7.10
2018-03-08T21:19:11.275Z,7.00
2018-03-08T21:21:38.885Z,7.00
2018-03-08T21:24:07.210Z,7.10
2018-03-08T21:26:34.765Z,7.10
2018-03-08T21:29:02.378Z,7.10
2018-03-08T21:31:30.746Z,7.20
2018-03-08T21:33:58.354Z,7.20
2018-03-08T21:36:25.912Z,7.30
2018-03-08T21:38:53.512Z,7.40
2018-03-08T21:41:21.096Z,7.50
2018-03-08T21:43:49.462Z,7.60
2018-03-08T21:46:17.027Z,7.60
2018-03-08T21:48:45.420Z,7.60
2018-03-08T21:51:13.761Z,7.80
2018-03-08T21:53:41.327Z,7.70
2018-03-08T21:56:08.923Z,7.90
2018-03-08T21:58:37.272Z,8.10
2018-03-08T22:01:04.859Z,8.10
2018-03-08T22:03:33.183Z,8.30
2018-03-08T22:06:00.778Z,8.30
2018-03-08T22:08:28.338Z,8.40
2018-03-08T22:10:55.929Z,8.50
2018-03-08T22:13:23.493Z,8.50
2018-03-08T22:15:51.044Z,8.60
2018-03-08T22:18:19.402Z,8.70
2018-03-08T22:20:47.734Z,8.70
2018-03-08T22:23:15.325Z,8.70
2018-03-08T22:25:42.897Z,8.70
2018-03-08T22:28:10.501Z,8.70
2018-03-08T22:30:38.053Z,8.60
2018-03-08T22:33:05.627Z,8.60
2018-03-08T22:35:33.197Z,8.70
2018-03-08T22:38:00.788Z,8.70
2018-03-08T22:40:28.353Z,8.80
2018-03-08T22:42:56.003Z,8.80
2018-03-08T22:45:23.589Z,8.80
2018-03-08T22:47:51.919Z,8.70
2018-03-08T22:50:19.493Z,8.70
2018-03-08T22:52:47.092Z,8.70
2018-03-08T22:55:15.410Z,8.70
2018-03-08T22:57:42.992Z,8.70
2018-03-08T23:00:10.660Z,8.70
2018-03-08T23:02:39.086Z,8.80
2018-03-08T23:05:06.651Z,8.80
2018-03-08T23:07:34.248Z,8.80
2018-03-08T23:10:01.821Z,8.70
2018-03-08T23:12:29.399Z,8.30
2018-03-08T23:14:57.755Z,7.60
2018-03-08T23:17:25.328Z,7.60
2018-03-08T23:19:52.919Z,7.40
2018-03-08T23:22:20.496Z,7.30
2018-03-08T23:24:48.087Z,7.20
2018-03-08T23:27:15.655Z,7.00
2018-03-08T23:29:43.254Z,7.10
2018-03-08T23:32:11.156Z,7.00
2018-03-08T23:34:38.714Z,6.80
2018-03-08T23:37:06.305Z,6.70
2018-03-08T23:39:33.908Z,6.60
2018-03-08T23:42:01.486Z,6.60
2018-03-08T23:44:29.075Z,6.50
2018-03-08T23:46:56.633Z,6.50
2018-03-08T23:49:24.230Z,6.40
2018-03-08T23:51:52.599Z,6.30
2018-03-08T23:54:20.947Z,6.20
2018-03-08T23:56:48.521Z,6.20
2018-03-08T23:59:16.161Z,6.10
